sensor_id;sensor_type;location;lat;lon;timestamp;P1;durP1;ratioP1;P2;durP2;ratioP2
14381;SDS011;7275;50.328;8.720;2023-12-28T00:00:25;7.67;;;5.40;;
14381;SDS011;7275;50.328;8.720;2023-12-28T00:02:54;8.83;;;5.20;;
14381;SDS011;7275;50.328;8.720;2023-12-28T00:05:21;10.50;;;5.60;;
14381;SDS011;7275;50.328;8.720;2023-12-28T00:07:49;8.07;;;5.70;;
14381;SDS011;7275;50.328;8.720;2023-12-28T00:10:23;7.47;;;5.10;;
14381;SDS011;7275;50.328;8.720;2023-12-28T00:12:51;6.60;;;5.37;;
14381;SDS011;7275;50.328;8.720;2023-12-28T00:15:19;7.10;;;5.40;;
14381;SDS011;7275;50.328;8.720;2023-12-28T00:17:46;7.80;;;5.37;;
14381;SDS011;7275;50.328;8.720;2023-12-28T00:20:16;7.83;;;5.40;;
14381;SDS011;7275;50.328;8.720;2023-12-28T00:22:43;7.20;;;5.10;;
14381;SDS011;7275;50.328;8.720;2023-12-28T00:25:11;6.87;;;4.63;;
14381;SDS011;7275;50.328;8.720;2023-12-28T00:27:38;8.37;;;5.17;;
14381;SDS011;7275;50.328;8.720;2023-12-28T00:30:06;7.83;;;5.20;;
14381;SDS011;7275;50.328;8.720;2023-12-28T00:32:35;6.93;;;4.77;;
14381;SDS011;7275;50.328;8.720;2023-12-28T00:35:03;7.90;;;5.47;;
14381;SDS011;7275;50.328;8.720;2023-12-28T00:37:33;7.23;;;5.07;;
14381;SDS011;7275;50.328;8.720;2023-12-28T00:40:00;7.63;;;5.23;;
14381;SDS011;7275;50.328;8.720;2023-12-28T00:42:28;7.17;;;5.13;;
14381;SDS011;7275;50.328;8.720;2023-12-28T00:44:56;7.83;;;5.63;;
14381;SDS011;7275;50.328;8.720;2023-12-28T00:47:23;7.30;;;5.33;;
14381;SDS011;7275;50.328;8.720;2023-12-28T00:49:51;7.80;;;5.30;;
14381;SDS011;7275;50.328;8.720;2023-12-28T00:52:19;7.43;;;5.13;;
14381;SDS011;7275;50.328;8.720;2023-12-28T00:54:47;6.77;;;5.30;;
14381;SDS011;7275;50.328;8.720;2023-12-28T00:57:15;7.10;;;5.23;;
14381;SDS011;7275;50.328;8.720;2023-12-28T00:59:43;6.37;;;4.83;;
14381;SDS011;7275;50.328;8.720;2023-12-28T01:02:10;9.33;;;5.23;;
14381;SDS011;7275;50.328;8.720;2023-12-28T01:04:38;7.80;;;4.60;;
14381;SDS011;7275;50.328;8.720;2023-12-28T01:07:06;7.17;;;5.20;;
14381;SDS011;7275;50.328;8.720;2023-12-28T01:09:33;7.13;;;5.20;;
14381;SDS011;7275;50.328;8.720;2023-12-28T01:12:02;5.97;;;4.60;;
14381;SDS011;7275;50.328;8.720;2023-12-28T01:14:31;6.60;;;4.63;;
14381;SDS011;7275;50.328;8.720;2023-12-28T01:16:59;5.83;;;4.30;;
14381;SDS011;7275;50.328;8.720;2023-12-28T01:19:26;6.13;;;4.50;;
14381;SDS011;7275;50.328;8.720;2023-12-28T01:21:54;7.97;;;4.93;;
14381;SDS011;7275;50.328;8.720;2023-12-28T01:24:21;5.27;;;4.50;;
14381;SDS011;7275;50.328;8.720;2023-12-28T01:26:50;6.70;;;4.90;;
14381;SDS011;7275;50.328;8.720;2023-12-28T01:29:19;5.60;;;4.47;;
14381;SDS011;7275;50.328;8.720;2023-12-28T01:31:46;5.60;;;4.10;;
14381;SDS011;7275;50.328;8.720;2023-12-28T01:34:14;4.73;;;3.93;;
14381;SDS011;7275;50.328;8.720;2023-12-28T01:36:42;6.23;;;4.27;;
14381;SDS011;7275;50.328;8.720;2023-12-28T01:39:10;5.63;;;4.33;;
14381;SDS011;7275;50.328;8.720;2023-12-28T01:41:38;5.27;;;4.20;;
14381;SDS011;7275;50.328;8.720;2023-12-28T01:44:05;5.93;;;4.40;;
14381;SDS011;7275;50.328;8.720;2023-12-28T01:46:34;6.67;;;4.47;;
14381;SDS011;7275;50.328;8.720;2023-12-28T01:49:03;4.97;;;4.20;;
14381;SDS011;7275;50.328;8.720;2023-12-28T01:51:32;5.70;;;4.33;;
14381;SDS011;7275;50.328;8.720;2023-12-28T01:54:00;5.03;;;4.23;;
14381;SDS011;7275;50.328;8.720;2023-12-28T01:56:28;7.30;;;4.47;;
14381;SDS011;7275;50.328;8.720;2023-12-28T01:58:56;6.10;;;4.27;;
14381;SDS011;7275;50.328;8.720;2023-12-28T02:01:24;5.17;;;3.90;;
14381;SDS011;7275;50.328;8.720;2023-12-28T02:03:54;6.47;;;4.33;;
14381;SDS011;7275;50.328;8.720;2023-12-28T02:06:23;5.13;;;4.17;;
14381;SDS011;7275;50.328;8.720;2023-12-28T02:08:51;5.37;;;4.30;;
14381;SDS011;7275;50.328;8.720;2023-12-28T02:11:19;5.27;;;4.10;;
14381;SDS011;7275;50.328;8.720;2023-12-28T02:13:47;7.77;;;4.60;;
14381;SDS011;7275;50.328;8.720;2023-12-28T02:16:15;5.37;;;4.30;;
14381;SDS011;7275;50.328;8.720;2023-12-28T02:18:49;6.00;;;4.77;;
14381;SDS011;7275;50.328;8.720;2023-12-28T02:21:19;5.37;;;4.13;;
14381;SDS011;7275;50.328;8.720;2023-12-28T02:23:47;5.10;;;4.20;;
14381;SDS011;7275;50.328;8.720;2023-12-28T02:26:17;5.43;;;4.40;;
14381;SDS011;7275;50.328;8.720;2023-12-28T02:28:44;7.50;;;4.40;;
14381;SDS011;7275;50.328;8.720;2023-12-28T02:31:14;5.53;;;4.43;;
14381;SDS011;7275;50.328;8.720;2023-12-28T02:33:49;5.77;;;4.60;;
14381;SDS011;7275;50.328;8.720;2023-12-28T02:36:22;5.70;;;4.77;;
14381;SDS011;7275;50.328;8.720;2023-12-28T02:38:51;5.83;;;4.50;;
14381;SDS011;7275;50.328;8.720;2023-12-28T02:41:22;5.23;;;4.23;;
14381;SDS011;7275;50.328;8.720;2023-12-28T02:43:52;5.67;;;4.50;;
14381;SDS011;7275;50.328;8.720;2023-12-28T02:46:19;6.27;;;4.17;;
14381;SDS011;7275;50.328;8.720;2023-12-28T02:48:48;5.80;;;4.43;;
14381;SDS011;7275;50.328;8.720;2023-12-28T02:51:16;5.77;;;4.43;;
14381;SDS011;7275;50.328;8.720;2023-12-28T02:53:44;6.27;;;4.83;;
14381;SDS011;7275;50.328;8.720;2023-12-28T02:56:12;6.57;;;4.33;;
14381;SDS011;7275;50.328;8.720;2023-12-28T02:58:40;6.23;;;4.30;;
14381;SDS011;7275;50.328;8.720;2023-12-28T03:01:08;6.37;;;4.50;;
14381;SDS011;7275;50.328;8.720;2023-12-28T03:03:35;5.27;;;4.30;;
14381;SDS011;7275;50.328;8.720;2023-12-28T03:06:03;5.40;;;4.50;;
14381;SDS011;7275;50.328;8.720;2023-12-28T03:08:31;5.77;;;4.50;;
14381;SDS011;7275;50.328;8.720;2023-12-28T03:10:59;6.47;;;4.33;;
14381;SDS011;7275;50.328;8.720;2023-12-28T03:13:26;5.67;;;4.60;;
14381;SDS011;7275;50.328;8.720;2023-12-28T03:15:55;7.03;;;4.40;;
14381;SDS011;7275;50.328;8.720;2023-12-28T03:18:23;4.60;;;4.07;;
14381;SDS011;7275;50.328;8.720;2023-12-28T03:20:51;5.63;;;3.90;;
14381;SDS011;7275;50.328;8.720;2023-12-28T03:23:18;4.93;;;3.93;;
14381;SDS011;7275;50.328;8.720;2023-12-28T03:25:46;5.10;;;4.10;;
14381;SDS011;7275;50.328;8.720;2023-12-28T03:28:13;5.67;;;4.10;;
14381;SDS011;7275;50.328;8.720;2023-12-28T03:30:41;5.43;;;4.13;;
14381;SDS011;7275;50.328;8.720;2023-12-28T03:33:10;4.23;;;3.80;;
14381;SDS011;7275;50.328;8.720;2023-12-28T03:35:38;5.30;;;4.40;;
14381;SDS011;7275;50.328;8.720;2023-12-28T03:38:05;7.73;;;4.57;;
14381;SDS011;7275;50.328;8.720;2023-12-28T03:40:33;4.67;;;3.83;;
14381;SDS011;7275;50.328;8.720;2023-12-28T03:43:00;5.20;;;4.07;;
14381;SDS011;7275;50.328;8.720;2023-12-28T03:45:28;4.97;;;3.97;;
14381;SDS011;7275;50.328;8.720;2023-12-28T03:47:56;4.67;;;3.70;;
14381;SDS011;7275;50.328;8.720;2023-12-28T03:50:25;5.63;;;3.93;;
14381;SDS011;7275;50.328;8.720;2023-12-28T03:52:53;5.57;;;4.33;;
14381;SDS011;7275;50.328;8.720;2023-12-28T03:55:20;5.67;;;3.87;;
14381;SDS011;7275;50.328;8.720;2023-12-28T03:57:48;4.97;;;4.03;;
14381;SDS011;7275;50.328;8.720;2023-12-28T04:00:17;4.77;;;4.10;;
14381;SDS011;7275;50.328;8.720;2023-12-28T04:02:45;6.17;;;4.13;;
14381;SDS011;7275;50.328;8.720;2023-12-28T04:05:14;6.10;;;4.30;;
14381;SDS011;7275;50.328;8.720;2023-12-28T04:07:43;5.90;;;4.20;;
14381;SDS011;7275;50.328;8.720;2023-12-28T04:10:11;9.73;;;4.70;;
14381;SDS011;7275;50.328;8.720;2023-12-28T04:12:38;5.53;;;4.57;;
14381;SDS011;7275;50.328;8.720;2023-12-28T04:15:06;4.63;;;4.13;;
14381;SDS011;7275;50.328;8.720;2023-12-28T04:17:34;5.93;;;4.33;;
14381;SDS011;7275;50.328;8.720;2023-12-28T04:20:01;5.43;;;4.07;;
14381;SDS011;7275;50.328;8.720;2023-12-28T04:22:29;6.33;;;4.33;;
14381;SDS011;7275;50.328;8.720;2023-12-28T04:24:58;6.97;;;4.00;;
14381;SDS011;7275;50.328;8.720;2023-12-28T04:27:26;5.30;;;4.03;;
14381;SDS011;7275;50.328;8.720;2023-12-28T04:29:53;4.77;;;3.67;;
14381;SDS011;7275;50.328;8.720;2023-12-28T04:32:20;4.87;;;3.57;;
14381;SDS011;7275;50.328;8.720;2023-12-28T04:34:50;6.00;;;3.73;;
14381;SDS011;7275;50.328;8.720;2023-12-28T04:37:18;5.87;;;3.67;;
14381;SDS011;7275;50.328;8.720;2023-12-28T04:39:46;4.13;;;3.30;;
14381;SDS011;7275;50.328;8.720;2023-12-28T04:42:15;4.60;;;3.50;;
14381;SDS011;7275;50.328;8.720;2023-12-28T04:44:43;4.13;;;3.57;;
14381;SDS011;7275;50.328;8.720;2023-12-28T04:47:10;3.90;;;3.50;;
14381;SDS011;7275;50.328;8.720;2023-12-28T04:49:38;5.07;;;3.30;;
14381;SDS011;7275;50.328;8.720;2023-12-28T04:52:06;3.47;;;3.17;;
14381;SDS011;7275;50.328;8.720;2023-12-28T04:54:33;4.13;;;3.27;;
14381;SDS011;7275;50.328;8.720;2023-12-28T04:57:01;4.80;;;3.13;;
14381;SDS011;7275;50.328;8.720;2023-12-28T04:59:30;4.20;;;3.20;;
14381;SDS011;7275;50.328;8.720;2023-12-28T05:01:58;4.43;;;3.27;;
14381;SDS011;7275;50.328;8.720;2023-12-28T05:04:25;4.13;;;3.70;;
14381;SDS011;7275;50.328;8.720;2023-12-28T05:06:53;5.73;;;3.43;;
14381;SDS011;7275;50.328;8.720;2023-12-28T05:09:20;3.67;;;3.33;;
14381;SDS011;7275;50.328;8.720;2023-12-28T05:11:48;4.17;;;3.40;;
14381;SDS011;7275;50.328;8.720;2023-12-28T05:14:15;4.07;;;3.30;;
14381;SDS011;7275;50.328;8.720;2023-12-28T05:16:44;3.97;;;3.03;;
14381;SDS011;7275;50.328;8.720;2023-12-28T05:19:12;4.53;;;3.23;;
14381;SDS011;7275;50.328;8.720;2023-12-28T05:21:39;3.97;;;3.53;;
14381;SDS011;7275;50.328;8.720;2023-12-28T05:24:07;4.37;;;3.43;;
14381;SDS011;7275;50.328;8.720;2023-12-28T05:26:35;4.00;;;3.60;;
14381;SDS011;7275;50.328;8.720;2023-12-28T05:29:02;5.10;;;3.50;;
14381;SDS011;7275;50.328;8.720;2023-12-28T05:31:30;5.00;;;3.50;;
14381;SDS011;7275;50.328;8.720;2023-12-28T05:33:59;4.70;;;3.60;;
14381;SDS011;7275;50.328;8.720;2023-12-28T05:36:27;5.20;;;3.90;;
14381;SDS011;7275;50.328;8.720;2023-12-28T05:38:55;5.20;;;3.97;;
14381;SDS011;7275;50.328;8.720;2023-12-28T05:41:22;4.33;;;3.80;;
14381;SDS011;7275;50.328;8.720;2023-12-28T05:43:50;5.50;;;4.07;;
14381;SDS011;7275;50.328;8.720;2023-12-28T05:46:18;5.00;;;4.20;;
14381;SDS011;7275;50.328;8.720;2023-12-28T05:48:45;6.10;;;4.03;;
14381;SDS011;7275;50.328;8.720;2023-12-28T05:51:15;5.73;;;4.00;;
14381;SDS011;7275;50.328;8.720;2023-12-28T05:53:44;5.83;;;4.60;;
14381;SDS011;7275;50.328;8.720;2023-12-28T05:56:12;6.37;;;4.47;;
14381;SDS011;7275;50.328;8.720;2023-12-28T05:58:39;5.30;;;4.00;;
14381;SDS011;7275;50.328;8.720;2023-12-28T06:01:07;5.87;;;4.73;;
14381;SDS011;7275;50.328;8.720;2023-12-28T06:03:35;4.70;;;4.17;;
14381;SDS011;7275;50.328;8.720;2023-12-28T06:06:02;6.27;;;4.20;;
14381;SDS011;7275;50.328;8.720;2023-12-28T06:08:32;7.13;;;4.40;;
14381;SDS011;7275;50.328;8.720;2023-12-28T06:10:59;5.30;;;4.30;;
14381;SDS011;7275;50.328;8.720;2023-12-28T06:13:27;5.17;;;4.33;;
14381;SDS011;7275;50.328;8.720;2023-12-28T06:15:54;5.17;;;4.30;;
14381;SDS011;7275;50.328;8.720;2023-12-28T06:18:22;5.20;;;4.40;;
14381;SDS011;7275;50.328;8.720;2023-12-28T06:20:50;5.40;;;4.40;;
14381;SDS011;7275;50.328;8.720;2023-12-28T06:23:17;5.83;;;4.70;;
14381;SDS011;7275;50.328;8.720;2023-12-28T06:25:46;5.30;;;4.80;;
14381;SDS011;7275;50.328;8.720;2023-12-28T06:28:14;6.13;;;4.73;;
14381;SDS011;7275;50.328;8.720;2023-12-28T06:30:41;4.97;;;4.43;;
14381;SDS011;7275;50.328;8.720;2023-12-28T06:33:09;4.80;;;4.30;;
14381;SDS011;7275;50.328;8.720;2023-12-28T06:35:37;5.77;;;4.33;;
14381;SDS011;7275;50.328;8.720;2023-12-28T06:38:04;5.97;;;4.37;;
14381;SDS011;7275;50.328;8.720;2023-12-28T06:40:32;5.93;;;4.57;;
14381;SDS011;7275;50.328;8.720;2023-12-28T06:43:00;6.07;;;4.70;;
14381;SDS011;7275;50.328;8.720;2023-12-28T06:45:28;5.23;;;4.50;;
14381;SDS011;7275;50.328;8.720;2023-12-28T06:47:55;4.97;;;4.20;;
14381;SDS011;7275;50.328;8.720;2023-12-28T06:50:24;6.23;;;4.53;;
14381;SDS011;7275;50.328;8.720;2023-12-28T06:52:51;5.33;;;4.70;;
14381;SDS011;7275;50.328;8.720;2023-12-28T06:55:19;6.00;;;4.47;;
14381;SDS011;7275;50.328;8.720;2023-12-28T06:57:46;5.90;;;4.20;;
14381;SDS011;7275;50.328;8.720;2023-12-28T07:00:16;5.10;;;4.57;;
14381;SDS011;7275;50.328;8.720;2023-12-28T07:02:44;5.30;;;4.53;;
14381;SDS011;7275;50.328;8.720;2023-12-28T07:05:11;5.33;;;4.20;;
14381;SDS011;7275;50.328;8.720;2023-12-28T07:07:40;5.37;;;4.13;;
14381;SDS011;7275;50.328;8.720;2023-12-28T07:10:08;5.90;;;4.40;;
14381;SDS011;7275;50.328;8.720;2023-12-28T07:12:36;4.70;;;4.30;;
14381;SDS011;7275;50.328;8.720;2023-12-28T07:15:04;5.17;;;4.13;;
14381;SDS011;7275;50.328;8.720;2023-12-28T07:17:33;5.57;;;4.10;;
14381;SDS011;7275;50.328;8.720;2023-12-28T07:20:01;4.70;;;4.30;;
14381;SDS011;7275;50.328;8.720;2023-12-28T07:22:29;6.10;;;4.50;;
14381;SDS011;7275;50.328;8.720;2023-12-28T07:24:57;4.53;;;4.10;;
14381;SDS011;7275;50.328;8.720;2023-12-28T07:27:25;5.03;;;3.90;;
14381;SDS011;7275;50.328;8.720;2023-12-28T07:29:52;5.07;;;3.70;;
14381;SDS011;7275;50.328;8.720;2023-12-28T07:32:20;4.77;;;3.83;;
14381;SDS011;7275;50.328;8.720;2023-12-28T07:34:53;5.30;;;3.80;;
14381;SDS011;7275;50.328;8.720;2023-12-28T07:37:20;5.23;;;3.70;;
14381;SDS011;7275;50.328;8.720;2023-12-28T07:39:48;4.57;;;3.50;;
14381;SDS011;7275;50.328;8.720;2023-12-28T07:42:16;4.80;;;3.30;;
14381;SDS011;7275;50.328;8.720;2023-12-28T07:44:43;4.40;;;3.33;;
14381;SDS011;7275;50.328;8.720;2023-12-28T07:47:11;3.40;;;3.10;;
14381;SDS011;7275;50.328;8.720;2023-12-28T07:49:40;3.93;;;3.23;;
14381;SDS011;7275;50.328;8.720;2023-12-28T07:52:09;4.03;;;3.30;;
14381;SDS011;7275;50.328;8.720;2023-12-28T07:54:37;3.50;;;3.20;;
14381;SDS011;7275;50.328;8.720;2023-12-28T07:57:04;4.03;;;3.40;;
14381;SDS011;7275;50.328;8.720;2023-12-28T07:59:32;3.93;;;3.07;;
14381;SDS011;7275;50.328;8.720;2023-12-28T08:01:59;3.20;;;2.90;;
14381;SDS011;7275;50.328;8.720;2023-12-28T08:04:27;3.33;;;3.00;;
14381;SDS011;7275;50.328;8.720;2023-12-28T08:06:55;3.47;;;2.90;;
14381;SDS011;7275;50.328;8.720;2023-12-28T08:09:24;3.73;;;3.33;;
14381;SDS011;7275;50.328;8.720;2023-12-28T08:11:51;3.67;;;3.00;;
14381;SDS011;7275;50.328;8.720;2023-12-28T08:14:19;4.20;;;3.17;;
14381;SDS011;7275;50.328;8.720;2023-12-28T08:16:46;3.13;;;2.80;;
14381;SDS011;7275;50.328;8.720;2023-12-28T08:19:14;4.67;;;2.93;;
14381;SDS011;7275;50.328;8.720;2023-12-28T08:21:41;3.40;;;3.10;;
14381;SDS011;7275;50.328;8.720;2023-12-28T08:24:09;3.20;;;2.87;;
14381;SDS011;7275;50.328;8.720;2023-12-28T08:26:38;3.93;;;3.20;;
14381;SDS011;7275;50.328;8.720;2023-12-28T08:29:06;3.23;;;2.80;;
14381;SDS011;7275;50.328;8.720;2023-12-28T08:31:33;3.17;;;2.70;;
14381;SDS011;7275;50.328;8.720;2023-12-28T08:34:01;4.23;;;2.90;;
14381;SDS011;7275;50.328;8.720;2023-12-28T08:36:29;3.37;;;2.70;;
14381;SDS011;7275;50.328;8.720;2023-12-28T08:38:56;3.03;;;2.60;;
14381;SDS011;7275;50.328;8.720;2023-12-28T08:41:24;3.00;;;2.70;;
14381;SDS011;7275;50.328;8.720;2023-12-28T08:43:54;3.37;;;2.87;;
14381;SDS011;7275;50.328;8.720;2023-12-28T08:46:21;3.00;;;2.60;;
14381;SDS011;7275;50.328;8.720;2023-12-28T08:48:50;4.40;;;2.53;;
14381;SDS011;7275;50.328;8.720;2023-12-28T08:51:18;2.97;;;2.60;;
14381;SDS011;7275;50.328;8.720;2023-12-28T08:53:46;3.67;;;2.80;;
14381;SDS011;7275;50.328;8.720;2023-12-28T08:56:17;4.47;;;3.00;;
14381;SDS011;7275;50.328;8.720;2023-12-28T08:58:46;3.17;;;2.87;;
14381;SDS011;7275;50.328;8.720;2023-12-28T09:01:18;4.27;;;2.60;;
14381;SDS011;7275;50.328;8.720;2023-12-28T09:03:48;3.47;;;2.80;;
14381;SDS011;7275;50.328;8.720;2023-12-28T09:06:16;2.93;;;2.47;;
14381;SDS011;7275;50.328;8.720;2023-12-28T09:08:45;4.17;;;2.60;;
14381;SDS011;7275;50.328;8.720;2023-12-28T09:11:14;2.77;;;2.50;;
14381;SDS011;7275;50.328;8.720;2023-12-28T09:13:42;4.90;;;3.00;;
14381;SDS011;7275;50.328;8.720;2023-12-28T09:16:10;3.20;;;2.77;;
14381;SDS011;7275;50.328;8.720;2023-12-28T09:18:40;3.47;;;2.97;;
14381;SDS011;7275;50.328;8.720;2023-12-28T09:21:09;3.73;;;2.97;;
14381;SDS011;7275;50.328;8.720;2023-12-28T09:23:37;3.40;;;2.57;;
14381;SDS011;7275;50.328;8.720;2023-12-28T09:26:06;2.83;;;2.53;;
14381;SDS011;7275;50.328;8.720;2023-12-28T09:28:34;3.50;;;3.00;;
14381;SDS011;7275;50.328;8.720;2023-12-28T09:31:02;2.93;;;2.63;;
14381;SDS011;7275;50.328;8.720;2023-12-28T09:33:31;4.00;;;3.10;;
14381;SDS011;7275;50.328;8.720;2023-12-28T09:36:00;4.33;;;3.23;;
14381;SDS011;7275;50.328;8.720;2023-12-28T09:38:30;3.37;;;3.07;;
14381;SDS011;7275;50.328;8.720;2023-12-28T09:40:58;4.37;;;3.07;;
14381;SDS011;7275;50.328;8.720;2023-12-28T09:43:33;4.03;;;3.17;;
14381;SDS011;7275;50.328;8.720;2023-12-28T09:46:06;4.27;;;2.83;;
14381;SDS011;7275;50.328;8.720;2023-12-28T09:48:34;3.33;;;2.70;;
14381;SDS011;7275;50.328;8.720;2023-12-28T09:51:06;3.50;;;2.73;;
14381;SDS011;7275;50.328;8.720;2023-12-28T09:53:37;3.17;;;2.80;;
14381;SDS011;7275;50.328;8.720;2023-12-28T09:56:05;4.73;;;3.10;;
14381;SDS011;7275;50.328;8.720;2023-12-28T09:58:34;3.30;;;2.97;;
14381;SDS011;7275;50.328;8.720;2023-12-28T10:01:03;5.47;;;2.97;;
14381;SDS011;7275;50.328;8.720;2023-12-28T10:03:32;4.27;;;2.60;;
14381;SDS011;7275;50.328;8.720;2023-12-28T10:06:00;7.07;;;3.23;;
14381;SDS011;7275;50.328;8.720;2023-12-28T10:08:29;3.80;;;2.73;;
14381;SDS011;7275;50.328;8.720;2023-12-28T10:10:57;5.43;;;2.97;;
14381;SDS011;7275;50.328;8.720;2023-12-28T10:13:25;4.20;;;3.03;;
14381;SDS011;7275;50.328;8.720;2023-12-28T10:15:52;4.37;;;2.93;;
14381;SDS011;7275;50.328;8.720;2023-12-28T10:18:24;4.73;;;3.00;;
14381;SDS011;7275;50.328;8.720;2023-12-28T10:20:52;3.50;;;3.20;;
14381;SDS011;7275;50.328;8.720;2023-12-28T10:23:20;5.33;;;2.87;;
14381;SDS011;7275;50.328;8.720;2023-12-28T10:25:49;4.30;;;3.10;;
14381;SDS011;7275;50.328;8.720;2023-12-28T10:28:19;3.33;;;3.03;;
14381;SDS011;7275;50.328;8.720;2023-12-28T10:30:47;4.03;;;3.00;;
14381;SDS011;7275;50.328;8.720;2023-12-28T10:33:15;3.77;;;2.80;;
14381;SDS011;7275;50.328;8.720;2023-12-28T10:35:46;4.13;;;3.00;;
14381;SDS011;7275;50.328;8.720;2023-12-28T10:38:14;3.43;;;2.80;;
14381;SDS011;7275;50.328;8.720;2023-12-28T10:40:44;5.20;;;2.73;;
14381;SDS011;7275;50.328;8.720;2023-12-28T10:43:15;2.87;;;2.57;;
14381;SDS011;7275;50.328;8.720;2023-12-28T10:45:46;3.83;;;2.80;;
14381;SDS011;7275;50.328;8.720;2023-12-28T10:48:14;4.17;;;2.80;;
14381;SDS011;7275;50.328;8.720;2023-12-28T10:50:49;3.77;;;3.07;;
14381;SDS011;7275;50.328;8.720;2023-12-28T10:53:25;4.27;;;2.83;;
14381;SDS011;7275;50.328;8.720;2023-12-28T10:56:14;4.23;;;2.93;;
14381;SDS011;7275;50.328;8.720;2023-12-28T10:58:49;4.07;;;2.90;;
14381;SDS011;7275;50.328;8.720;2023-12-28T11:01:21;4.30;;;2.63;;
14381;SDS011;7275;50.328;8.720;2023-12-28T11:03:53;5.50;;;3.10;;
14381;SDS011;7275;50.328;8.720;2023-12-28T11:06:25;4.60;;;2.60;;
14381;SDS011;7275;50.328;8.720;2023-12-28T11:08:54;4.23;;;2.43;;
14381;SDS011;7275;50.328;8.720;2023-12-28T11:11:24;5.30;;;2.80;;
14381;SDS011;7275;50.328;8.720;2023-12-28T11:13:55;4.57;;;2.80;;
14381;SDS011;7275;50.328;8.720;2023-12-28T11:16:23;2.93;;;2.40;;
14381;SDS011;7275;50.328;8.720;2023-12-28T11:18:52;3.93;;;2.60;;
14381;SDS011;7275;50.328;8.720;2023-12-28T11:21:20;4.20;;;2.70;;
14381;SDS011;7275;50.328;8.720;2023-12-28T11:23:49;3.97;;;2.30;;
14381;SDS011;7275;50.328;8.720;2023-12-28T11:26:17;2.77;;;2.40;;
14381;SDS011;7275;50.328;8.720;2023-12-28T11:28:46;2.90;;;2.17;;
14381;SDS011;7275;50.328;8.720;2023-12-28T11:31:16;2.67;;;2.27;;
14381;SDS011;7275;50.328;8.720;2023-12-28T11:33:45;3.97;;;2.27;;
14381;SDS011;7275;50.328;8.720;2023-12-28T11:36:19;4.07;;;2.23;;
14381;SDS011;7275;50.328;8.720;2023-12-28T11:38:50;3.33;;;2.10;;
14381;SDS011;7275;50.328;8.720;2023-12-28T11:41:21;2.30;;;2.10;;
14381;SDS011;7275;50.328;8.720;2023-12-28T11:43:51;2.87;;;2.13;;
14381;SDS011;7275;50.328;8.720;2023-12-28T11:46:21;2.70;;;2.00;;
14381;SDS011;7275;50.328;8.720;2023-12-28T11:48:49;3.10;;;2.03;;
14381;SDS011;7275;50.328;8.720;2023-12-28T11:51:16;3.23;;;1.97;;
14381;SDS011;7275;50.328;8.720;2023-12-28T11:53:44;4.03;;;2.00;;
14381;SDS011;7275;50.328;8.720;2023-12-28T11:56:15;3.30;;;2.10;;
14381;SDS011;7275;50.328;8.720;2023-12-28T11:58:43;4.80;;;2.53;;
14381;SDS011;7275;50.328;8.720;2023-12-28T12:01:13;2.90;;;1.93;;
14381;SDS011;7275;50.328;8.720;2023-12-28T12:03:42;3.00;;;1.83;;
14381;SDS011;7275;50.328;8.720;2023-12-28T12:06:09;2.63;;;1.80;;
14381;SDS011;7275;50.328;8.720;2023-12-28T12:08:37;3.87;;;1.90;;
14381;SDS011;7275;50.328;8.720;2023-12-28T12:11:05;3.10;;;1.90;;
14381;SDS011;7275;50.328;8.720;2023-12-28T12:13:33;2.53;;;1.80;;
14381;SDS011;7275;50.328;8.720;2023-12-28T12:16:02;2.33;;;1.90;;
14381;SDS011;7275;50.328;8.720;2023-12-28T12:18:33;2.67;;;1.80;;
14381;SDS011;7275;50.328;8.720;2023-12-28T12:21:02;2.63;;;1.77;;
14381;SDS011;7275;50.328;8.720;2023-12-28T12:23:32;4.80;;;1.90;;
14381;SDS011;7275;50.328;8.720;2023-12-28T12:26:00;2.23;;;1.60;;
14381;SDS011;7275;50.328;8.720;2023-12-28T12:28:28;4.57;;;2.07;;
14381;SDS011;7275;50.328;8.720;2023-12-28T12:30:56;3.60;;;1.93;;
14381;SDS011;7275;50.328;8.720;2023-12-28T12:33:24;2.53;;;1.60;;
14381;SDS011;7275;50.328;8.720;2023-12-28T12:35:53;2.87;;;1.80;;
14381;SDS011;7275;50.328;8.720;2023-12-28T12:38:23;2.57;;;1.70;;
14381;SDS011;7275;50.328;8.720;2023-12-28T12:40:50;2.40;;;1.50;;
14381;SDS011;7275;50.328;8.720;2023-12-28T12:43:19;3.63;;;1.70;;
14381;SDS011;7275;50.328;8.720;2023-12-28T12:45:46;4.07;;;1.60;;
14381;SDS011;7275;50.328;8.720;2023-12-28T12:48:15;4.43;;;1.87;;
14381;SDS011;7275;50.328;8.720;2023-12-28T12:50:43;3.10;;;1.57;;
14381;SDS011;7275;50.328;8.720;2023-12-28T12:53:10;1.97;;;1.40;;
14381;SDS011;7275;50.328;8.720;2023-12-28T12:55:39;1.40;;;1.30;;
14381;SDS011;7275;50.328;8.720;2023-12-28T12:58:08;3.10;;;1.60;;
14381;SDS011;7275;50.328;8.720;2023-12-28T13:00:38;3.47;;;1.50;;
14381;SDS011;7275;50.328;8.720;2023-12-28T13:03:07;2.73;;;1.40;;
14381;SDS011;7275;50.328;8.720;2023-12-28T13:05:35;2.87;;;1.40;;
14381;SDS011;7275;50.328;8.720;2023-12-28T13:08:03;2.13;;;1.43;;
14381;SDS011;7275;50.328;8.720;2023-12-28T13:10:31;2.30;;;1.30;;
14381;SDS011;7275;50.328;8.720;2023-12-28T13:13:00;2.40;;;1.30;;
14381;SDS011;7275;50.328;8.720;2023-12-28T13:15:29;2.03;;;1.40;;
14381;SDS011;7275;50.328;8.720;2023-12-28T13:17:56;3.00;;;1.20;;
14381;SDS011;7275;50.328;8.720;2023-12-28T13:20:24;2.27;;;1.20;;
14381;SDS011;7275;50.328;8.720;2023-12-28T13:22:51;1.80;;;1.27;;
14381;SDS011;7275;50.328;8.720;2023-12-28T13:25:19;2.10;;;1.30;;
14381;SDS011;7275;50.328;8.720;2023-12-28T13:27:46;3.83;;;1.33;;
14381;SDS011;7275;50.328;8.720;2023-12-28T13:30:15;2.42;;;1.38;;
14381;SDS011;7275;50.328;8.720;2023-12-28T13:32:43;2.75;;;1.20;;
14381;SDS011;7275;50.328;8.720;2023-12-28T13:35:11;3.28;;;1.35;;
14381;SDS011;7275;50.328;8.720;2023-12-28T13:37:38;2.20;;;1.45;;
14381;SDS011;7275;50.328;8.720;2023-12-28T13:40:07;2.28;;;1.40;;
14381;SDS011;7275;50.328;8.720;2023-12-28T13:42:35;4.03;;;1.42;;
14381;SDS011;7275;50.328;8.720;2023-12-28T13:45:03;1.92;;;1.30;;
14381;SDS011;7275;50.328;8.720;2023-12-28T13:47:33;3.58;;;1.70;;
14381;SDS011;7275;50.328;8.720;2023-12-28T13:50:00;4.22;;;1.67;;
14381;SDS011;7275;50.328;8.720;2023-12-28T13:52:28;2.50;;;1.40;;
14381;SDS011;7275;50.328;8.720;2023-12-28T13:54:55;3.85;;;1.80;;
14381;SDS011;7275;50.328;8.720;2023-12-28T13:57:23;1.83;;;1.30;;
14381;SDS011;7275;50.328;8.720;2023-12-28T13:59:51;2.17;;;1.63;;
14381;SDS011;7275;50.328;8.720;2023-12-28T14:02:21;3.67;;;1.70;;
14381;SDS011;7275;50.328;8.720;2023-12-28T14:04:50;3.00;;;1.80;;
14381;SDS011;7275;50.328;8.720;2023-12-28T14:07:20;4.07;;;2.00;;
14381;SDS011;7275;50.328;8.720;2023-12-28T14:09:47;3.80;;;2.00;;
14381;SDS011;7275;50.328;8.720;2023-12-28T14:12:15;5.10;;;1.93;;
14381;SDS011;7275;50.328;8.720;2023-12-28T14:14:42;3.67;;;2.17;;
14381;SDS011;7275;50.328;8.720;2023-12-28T14:17:10;3.70;;;1.90;;
14381;SDS011;7275;50.328;8.720;2023-12-28T14:19:37;4.33;;;2.10;;
14381;SDS011;7275;50.328;8.720;2023-12-28T14:22:08;4.37;;;2.00;;
14381;SDS011;7275;50.328;8.720;2023-12-28T14:24:36;5.63;;;2.17;;
14381;SDS011;7275;50.328;8.720;2023-12-28T14:27:04;2.87;;;1.97;;
14381;SDS011;7275;50.328;8.720;2023-12-28T14:29:32;3.80;;;2.23;;
14381;SDS011;7275;50.328;8.720;2023-12-28T14:32:00;4.00;;;2.20;;
14381;SDS011;7275;50.328;8.720;2023-12-28T14:34:28;3.77;;;2.20;;
14381;SDS011;7275;50.328;8.720;2023-12-28T14:36:58;5.37;;;2.10;;
14381;SDS011;7275;50.328;8.720;2023-12-28T14:39:27;6.23;;;2.27;;
14381;SDS011;7275;50.328;8.720;2023-12-28T14:41:54;5.90;;;2.60;;
14381;SDS011;7275;50.328;8.720;2023-12-28T14:44:24;3.77;;;2.00;;
14381;SDS011;7275;50.328;8.720;2023-12-28T14:46:51;3.00;;;1.90;;
14381;SDS011;7275;50.328;8.720;2023-12-28T14:49:22;2.83;;;2.13;;
14381;SDS011;7275;50.328;8.720;2023-12-28T14:51:50;3.77;;;2.23;;
14381;SDS011;7275;50.328;8.720;2023-12-28T14:54:18;3.90;;;2.37;;
14381;SDS011;7275;50.328;8.720;2023-12-28T14:56:46;3.00;;;2.07;;
14381;SDS011;7275;50.328;8.720;2023-12-28T14:59:20;3.30;;;2.10;;
14381;SDS011;7275;50.328;8.720;2023-12-28T15:01:48;2.33;;;1.93;;
14381;SDS011;7275;50.328;8.720;2023-12-28T15:04:16;4.00;;;1.80;;
14381;SDS011;7275;50.328;8.720;2023-12-28T15:06:46;3.80;;;1.97;;